createdAt,value
2023-02-03T00:00:07.727Z,96.90
2023-02-03T00:03:02.431Z,39.50
2023-02-03T00:05:31.787Z,26.50
2023-02-03T00:07:59.744Z,36.20
2023-02-03T00:10:27.978Z,41.10
2023-02-03T00:12:57.666Z,38.30
2023-02-03T00:15:25.599Z,28.10
2023-02-03T00:17:53.672Z,28.20
2023-02-03T00:20:22.508Z,30.80
2023-02-03T00:22:50.354Z,29.50
2023-02-03T00:25:18.952Z,27.30
2023-02-03T00:27:47.294Z,47.30
2023-02-03T00:30:15.273Z,45.50
2023-02-03T00:32:43.108Z,35.80
2023-02-03T00:35:12.824Z,49.80
2023-02-03T00:37:40.741Z,36.00
2023-02-03T00:40:09.558Z,38.80
2023-02-03T00:42:37.605Z,28.00
2023-02-03T00:45:06.698Z,28.70
2023-02-03T00:47:34.752Z,45.10
2023-02-03T00:50:02.686Z,68.90
2023-02-03T00:52:30.629Z,85.60
2023-02-03T00:54:58.668Z,88.80
2023-02-03T00:57:26.474Z,60.80
2023-02-03T00:59:54.957Z,35.70
2023-02-03T01:02:22.952Z,32.60
2023-02-03T01:04:50.830Z,29.90
2023-02-03T01:07:19.202Z,27.00
2023-02-03T01:09:47.238Z,22.30
2023-02-03T01:12:15.019Z,23.60
2023-02-03T01:14:42.789Z,20.00
2023-02-03T01:17:10.650Z,19.90
2023-02-03T01:19:38.523Z,31.70
2023-02-03T01:22:06.481Z,36.20
2023-02-03T01:24:34.431Z,36.80
2023-02-03T01:27:02.353Z,32.30
2023-02-03T01:29:30.318Z,19.00
2023-02-03T01:31:58.442Z,17.50
2023-02-03T01:34:26.401Z,21.50
2023-02-03T01:36:54.509Z,28.00
2023-02-03T01:39:23.016Z,49.50
2023-02-03T01:41:50.867Z,42.40
2023-02-03T01:44:53.183Z,36.80
2023-02-03T01:47:29.741Z,28.70
2023-02-03T01:50:13.683Z,19.90
2023-02-03T01:52:44.311Z,16.20
2023-02-03T01:55:17.601Z,15.80
2023-02-03T01:57:56.433Z,17.70
2023-02-03T02:00:24.809Z,27.90
2023-02-03T02:03:00.598Z,25.20
2023-02-03T02:05:37.416Z,23.10
2023-02-03T02:08:07.195Z,20.50
2023-02-03T02:10:35.429Z,22.20
2023-02-03T02:13:06.037Z,24.10
2023-02-03T02:15:44.465Z,25.10
2023-02-03T02:18:32.704Z,21.40
2023-02-03T02:21:20.225Z,17.70
2023-02-03T02:24:26.775Z,28.50
2023-02-03T02:27:02.821Z,16.50
2023-02-03T02:29:37.097Z,15.30
2023-02-03T02:32:26.233Z,20.50
2023-02-03T02:35:06.349Z,21.80
2023-02-03T02:37:55.749Z,27.40
2023-02-03T02:40:30.038Z,32.70
2023-02-03T02:43:05.008Z,21.90
2023-02-03T02:45:44.778Z,16.60
2023-02-03T02:48:24.626Z,15.40
2023-02-03T02:50:56.777Z,14.10
2023-02-03T02:53:29.360Z,14.90
2023-02-03T02:55:59.864Z,13.80
2023-02-03T02:58:31.667Z,14.40
2023-02-03T03:00:59.653Z,14.60
2023-02-03T03:03:27.631Z,17.50
2023-02-03T03:06:05.720Z,18.60
2023-02-03T03:09:08.114Z,17.10
2023-02-03T03:11:47.532Z,14.80
2023-02-03T03:14:19.421Z,13.60
2023-02-03T03:16:57.683Z,14.30
2023-02-03T03:19:33.835Z,14.60
2023-02-03T03:22:05.982Z,20.70
2023-02-03T03:24:40.526Z,25.90
2023-02-03T03:27:15.366Z,27.60
2023-02-03T03:30:18.814Z,21.60
2023-02-03T03:32:46.887Z,19.30
2023-02-03T03:35:15.318Z,16.60
2023-02-03T03:38:00.795Z,15.40
2023-02-03T03:40:51.766Z,14.50
2023-02-03T03:43:29.803Z,13.80
2023-02-03T03:46:10.587Z,12.70
2023-02-03T03:48:47.997Z,11.80
2023-02-03T03:51:30.386Z,10.50
2023-02-03T03:54:04.068Z,11.00
2023-02-03T03:56:39.924Z,9.40
2023-02-03T03:59:11.536Z,9.30
2023-02-03T04:01:41.206Z,9.80
2023-02-03T04:04:11.545Z,10.80
2023-02-03T04:06:39.997Z,9.50
2023-02-03T04:09:08.368Z,8.50
2023-02-03T04:11:54.672Z,11.50
2023-02-03T04:14:22.630Z,11.30
2023-02-03T04:16:50.604Z,10.90
2023-02-03T04:19:18.472Z,10.30
2023-02-03T04:21:46.344Z,8.80
2023-02-03T04:24:14.657Z,9.00
2023-02-03T04:26:43.070Z,9.90
2023-02-03T04:29:10.928Z,10.70
2023-02-03T04:31:39.099Z,24.80
2023-02-03T04:34:07.130Z,17.10
2023-02-03T04:36:35.010Z,12.00
2023-02-03T04:39:03.354Z,11.00
2023-02-03T04:41:31.285Z,16.20
2023-02-03T04:43:59.095Z,12.70
2023-02-03T04:46:26.881Z,12.00
2023-02-03T04:48:54.658Z,10.50
2023-02-03T04:51:22.450Z,10.90
2023-02-03T04:53:50.468Z,10.50
2023-02-03T04:56:18.245Z,9.10
2023-02-03T04:58:46.155Z,9.40
2023-02-03T05:01:14.144Z,10.80
2023-02-03T05:03:42.062Z,8.70
2023-02-03T05:06:10.162Z,8.60
2023-02-03T05:08:37.923Z,9.90
2023-02-03T05:11:06.663Z,10.30
2023-02-03T05:13:34.636Z,11.40
2023-02-03T05:16:02.684Z,12.20
2023-02-03T05:18:30.565Z,12.50
2023-02-03T05:20:58.461Z,12.50
2023-02-03T05:23:26.313Z,11.10
2023-02-03T05:25:54.107Z,13.10
2023-02-03T05:28:22.014Z,9.60
2023-02-03T05:30:50.010Z,10.70
2023-02-03T05:33:18.056Z,11.50
2023-02-03T05:35:46.088Z,10.80
2023-02-03T05:38:13.897Z,13.40
2023-02-03T05:41:00.556Z,11.00
2023-02-03T05:43:28.767Z,11.50
2023-02-03T05:46:03.271Z,10.80
2023-02-03T05:48:32.248Z,15.80
2023-02-03T05:51:00.521Z,11.00
2023-02-03T05:53:28.405Z,9.80
2023-02-03T05:55:56.192Z,10.90
2023-02-03T05:58:24.369Z,11.60
2023-02-03T06:00:53.026Z,9.80
2023-02-03T06:03:21.085Z,15.60
2023-02-03T06:05:49.099Z,14.10
2023-02-03T06:08:17.240Z,13.10
2023-02-03T06:10:45.327Z,11.20
2023-02-03T06:13:15.496Z,11.00
2023-02-03T06:15:44.319Z,12.30
2023-02-03T06:18:12.207Z,13.60
2023-02-03T06:20:40.136Z,16.90
2023-02-03T06:23:08.280Z,16.50
2023-02-03T06:25:36.174Z,17.50
2023-02-03T06:28:04.185Z,20.70
2023-02-03T06:30:32.186Z,16.30
2023-02-03T06:33:00.337Z,13.30
2023-02-03T06:35:28.543Z,23.90
2023-02-03T06:37:56.706Z,22.80
2023-02-03T06:40:24.844Z,14.60
2023-02-03T06:42:53.260Z,23.20
2023-02-03T06:45:21.190Z,63.90
2023-02-03T06:47:48.992Z,34.40
2023-02-03T06:50:17.042Z,35.00
2023-02-03T06:52:45.136Z,26.00
2023-02-03T06:55:13.067Z,17.30
2023-02-03T06:57:45.813Z,13.70
2023-02-03T07:00:18.621Z,13.30
2023-02-03T07:02:52.933Z,13.10
2023-02-03T07:05:22.505Z,12.20
2023-02-03T07:07:51.685Z,13.30
2023-02-03T07:10:19.798Z,14.80
2023-02-03T07:12:48.135Z,13.20
2023-02-03T07:15:17.034Z,11.60
2023-02-03T07:17:51.420Z,22.90
2023-02-03T07:20:19.730Z,16.20
2023-02-03T07:22:52.331Z,13.30
2023-02-03T07:25:20.586Z,15.60
2023-02-03T07:27:48.622Z,20.00
2023-02-03T07:30:17.262Z,15.50
2023-02-03T07:32:53.000Z,18.70
2023-02-03T07:35:21.571Z,15.60
2023-02-03T07:37:49.338Z,12.00
2023-02-03T07:40:17.849Z,16.30
2023-02-03T07:42:48.054Z,16.60
2023-02-03T07:45:18.034Z,14.40
2023-02-03T07:47:45.861Z,23.80
2023-02-03T07:50:13.887Z,15.30
2023-02-03T07:52:41.918Z,13.50
2023-02-03T07:55:10.283Z,12.20
2023-02-03T07:57:43.500Z,24.10
2023-02-03T08:00:14.036Z,65.10
2023-02-03T08:02:43.818Z,30.00
2023-02-03T08:05:13.105Z,18.70
2023-02-03T08:07:41.773Z,17.30
2023-02-03T08:10:11.594Z,16.50
2023-02-03T08:12:40.171Z,14.30
2023-02-03T08:15:08.864Z,16.30
2023-02-03T08:17:40.010Z,14.50
2023-02-03T08:20:09.574Z,13.40
2023-02-03T08:22:37.424Z,14.30
2023-02-03T08:25:05.844Z,17.90
2023-02-03T08:27:33.802Z,13.80
2023-02-03T08:30:02.108Z,19.30
2023-02-03T08:32:29.956Z,16.60
2023-02-03T08:34:57.899Z,12.10
2023-02-03T08:37:26.568Z,14.50
2023-02-03T08:39:54.588Z,14.80
2023-02-03T08:42:22.622Z,15.80
2023-02-03T08:44:50.649Z,19.60
2023-02-03T08:47:18.855Z,12.80
2023-02-03T08:49:46.952Z,22.10
2023-02-03T08:52:18.017Z,15.30
2023-02-03T08:54:47.650Z,12.80
2023-02-03T08:57:16.149Z,13.50
2023-02-03T08:59:44.936Z,13.00
2023-02-03T09:02:19.465Z,24.60
2023-02-03T09:04:49.237Z,12.90
2023-02-03T09:07:17.825Z,11.00
2023-02-03T09:09:45.980Z,10.90
2023-02-03T09:12:14.193Z,22.20
2023-02-03T09:14:42.093Z,19.50
2023-02-03T09:17:10.965Z,14.90
2023-02-03T09:19:38.893Z,8.80
2023-02-03T09:22:06.869Z,10.00
2023-02-03T09:24:36.358Z,13.60
2023-02-03T09:27:04.331Z,27.50
2023-02-03T09:29:32.572Z,11.80
2023-02-03T09:32:02.460Z,11.00
2023-02-03T09:34:30.423Z,13.10
2023-02-03T09:36:58.515Z,9.00
2023-02-03T09:39:26.423Z,11.40
2023-02-03T09:42:28.664Z,14.30
2023-02-03T09:45:06.036Z,10.40
2023-02-03T09:47:38.716Z,12.30
2023-02-03T09:50:21.376Z,9.70
2023-02-03T09:52:50.970Z,9.80
2023-02-03T09:55:40.045Z,14.70
2023-02-03T09:58:18.461Z,25.50
2023-02-03T10:00:56.290Z,13.40
2023-02-03T10:03:35.052Z,8.80
2023-02-03T10:06:13.955Z,8.80
2023-02-03T10:08:54.171Z,9.30
2023-02-03T10:11:38.886Z,12.70
2023-02-03T10:14:09.637Z,16.40
2023-02-03T10:16:46.879Z,23.50
2023-02-03T10:19:23.237Z,20.60
2023-02-03T10:21:59.062Z,16.10
2023-02-03T10:24:48.810Z,30.00
2023-02-03T10:27:21.171Z,35.50
2023-02-03T10:29:58.164Z,19.40
2023-02-03T10:32:27.858Z,28.40
2023-02-03T10:34:56.551Z,27.00
2023-02-03T10:37:33.911Z,24.80
2023-02-03T10:40:02.535Z,18.50
2023-02-03T10:42:52.682Z,17.40
2023-02-03T10:45:20.959Z,24.50
2023-02-03T10:47:54.029Z,21.30
2023-02-03T10:50:31.493Z,20.80
2023-02-03T10:53:24.209Z,16.00
2023-02-03T10:56:02.794Z,21.70
2023-02-03T10:58:33.472Z,31.60
2023-02-03T11:01:06.428Z,21.00
2023-02-03T11:03:34.917Z,26.10
2023-02-03T11:06:10.052Z,30.60
2023-02-03T11:08:41.694Z,21.00
2023-02-03T11:11:14.590Z,34.40
2023-02-03T11:13:42.602Z,29.30
2023-02-03T11:16:20.959Z,22.50
2023-02-03T11:18:55.237Z,24.40
2023-02-03T11:21:25.190Z,19.00
2023-02-03T11:24:04.969Z,22.50
2023-02-03T11:26:40.474Z,24.50
2023-02-03T11:29:18.429Z,25.20
2023-02-03T11:31:53.453Z,19.20
2023-02-03T11:34:31.702Z,21.60
2023-02-03T11:37:27.042Z,27.40
2023-02-03T11:42:37.714Z,21.30
2023-02-03T11:45:25.332Z,24.20
2023-02-03T11:47:56.315Z,18.90
2023-02-03T11:50:49.845Z,39.90
2023-02-03T11:53:57.204Z,24.80
2023-02-03T11:56:52.257Z,53.40
2023-02-03T11:59:25.968Z,22.50
2023-02-03T12:02:09.871Z,17.40
2023-02-03T12:04:47.028Z,14.10
2023-02-03T12:07:47.016Z,12.80
2023-02-03T12:10:27.619Z,32.80
2023-02-03T12:13:35.112Z,25.10
2023-02-03T12:16:27.918Z,14.60
2023-02-03T12:19:27.655Z,14.70
2023-02-03T12:22:17.245Z,12.00
2023-02-03T12:25:11.025Z,15.30
2023-02-03T12:27:49.850Z,11.90
2023-02-03T12:30:39.662Z,8.10
2023-02-03T12:33:27.533Z,8.00
2023-02-03T12:36:08.110Z,9.30
2023-02-03T12:38:42.600Z,8.20
2023-02-03T12:41:17.371Z,9.10
2023-02-03T12:43:52.629Z,11.80
2023-02-03T12:46:42.004Z,5.10
2023-02-03T12:49:18.965Z,5.10
2023-02-03T12:51:58.379Z,6.00
2023-02-03T12:54:51.565Z,5.50
2023-02-03T12:57:49.191Z,8.30
2023-02-03T13:00:19.889Z,5.60
2023-02-03T13:03:19.708Z,5.20
2023-02-03T13:06:17.368Z,6.80
2023-02-03T13:08:56.999Z,5.80
2023-02-03T13:11:33.954Z,8.70
2023-02-03T13:14:18.527Z,8.40
2023-02-03T13:16:53.745Z,20.20
2023-02-03T13:19:29.306Z,11.30
2023-02-03T13:21:57.939Z,9.50
2023-02-03T13:24:28.348Z,4.30
2023-02-03T13:27:46.218Z,2.40
2023-02-03T13:43:54.144Z,3.40
2023-02-03T13:47:21.844Z,4.30
2023-02-03T13:50:25.928Z,4.20
2023-02-03T13:53:34.829Z,3.80
2023-02-03T13:57:13.774Z,3.30
2023-02-03T14:12:15.269Z,4.00
2023-02-03T14:16:05.986Z,2.30
2023-02-03T14:27:37.747Z,11.70
2023-02-03T14:30:57.899Z,14.60
2023-02-03T14:34:38.307Z,32.90
2023-02-03T14:38:01.428Z,4.70
2023-02-03T14:41:31.314Z,21.00
2023-02-03T14:45:14.699Z,11.60
2023-02-03T14:48:20.251Z,11.00
2023-02-03T14:51:26.443Z,9.40
2023-02-03T14:54:19.096Z,21.50
2023-02-03T14:57:52.075Z,18.90
2023-02-03T15:01:32.212Z,38.70
2023-02-03T15:04:27.119Z,82.60
2023-02-03T15:07:09.165Z,44.80
2023-02-03T15:09:55.934Z,43.30
2023-02-03T15:12:53.636Z,26.10
2023-02-03T15:15:46.926Z,29.80
2023-02-03T15:19:07.518Z,58.10
2023-02-03T15:21:56.070Z,50.80
2023-02-03T15:24:28.882Z,28.40
2023-02-03T15:27:50.432Z,28.70
2023-02-03T15:31:39.613Z,190.20
2023-02-03T16:07:46.081Z,161.20
2023-02-03T16:10:29.092Z,35.20
2023-02-03T16:13:55.032Z,61.40
2023-02-03T16:17:17.357Z,49.80
2023-02-03T16:20:12.208Z,31.30
2023-02-03T16:23:49.759Z,18.60
2023-02-03T16:27:07.396Z,17.50
2023-02-03T16:30:12.371Z,53.70
2023-02-03T16:34:08.221Z,66.20
2023-02-03T16:37:31.727Z,96.80
2023-02-03T16:40:42.641Z,25.20
2023-02-03T16:43:57.356Z,15.40
2023-02-03T16:47:11.547Z,18.70
2023-02-03T16:50:37.553Z,22.70
2023-02-03T16:53:55.962Z,41.10
2023-02-03T16:57:14.736Z,10.80
2023-02-03T16:59:51.844Z,11.10
2023-02-03T17:02:35.953Z,24.20
2023-02-03T17:05:51.265Z,30.60
2023-02-03T17:08:52.964Z,66.90
2023-02-03T17:11:27.199Z,23.50
2023-02-03T17:14:33.457Z,23.40
2023-02-03T17:17:09.969Z,15.30
2023-02-03T17:20:38.832Z,23.00
2023-02-03T17:23:58.038Z,19.10
2023-02-03T17:27:00.956Z,28.00
2023-02-03T17:29:42.870Z,14.40
2023-02-03T17:32:15.702Z,10.80
2023-02-03T17:35:19.972Z,14.40
2023-02-03T17:37:58.572Z,24.50
2023-02-03T17:55:17.588Z,21.60
2023-02-03T17:57:56.909Z,15.00
2023-02-03T18:00:45.585Z,11.10
2023-02-03T18:03:19.689Z,13.70
2023-02-03T18:06:16.346Z,14.80
2023-02-03T18:09:02.064Z,35.60
2023-02-03T18:11:43.184Z,35.20
2023-02-03T18:15:06.957Z,17.40
2023-02-03T18:17:56.821Z,20.40
2023-02-03T18:20:57.157Z,12.70
2023-02-03T18:24:04.188Z,9.50
2023-02-03T18:27:17.838Z,11.50
2023-02-03T18:30:46.266Z,7.50
2023-02-03T18:34:20.026Z,7.40
2023-02-03T18:38:00.276Z,6.10
2023-02-03T18:40:54.884Z,6.40
2023-02-03T18:43:52.627Z,10.40
2023-02-03T18:47:05.310Z,14.00
2023-02-03T18:50:25.701Z,8.90
2023-02-03T18:53:29.349Z,9.60
2023-02-03T18:57:02.904Z,6.30
2023-02-03T19:00:05.791Z,10.70
2023-02-03T19:03:17.434Z,7.00
2023-02-03T19:06:21.685Z,6.20
2023-02-03T19:19:03.658Z,6.80
2023-02-03T19:25:31.432Z,5.30
2023-02-03T19:28:30.526Z,4.60
2023-02-03T19:31:38.091Z,8.70
2023-02-03T19:34:43.407Z,11.20
2023-02-03T19:38:02.113Z,10.10
2023-02-03T19:41:02.852Z,29.10
2023-02-03T19:43:41.997Z,16.70
2023-02-03T19:46:36.959Z,23.50
2023-02-03T19:49:57.753Z,45.00
2023-02-03T19:52:59.510Z,17.20
2023-02-03T19:55:53.887Z,19.60
2023-02-03T19:58:56.152Z,7.60
2023-02-03T20:01:38.327Z,7.60
2023-02-03T20:04:28.378Z,19.10
2023-02-03T20:07:08.683Z,9.50
2023-02-03T20:10:33.020Z,17.40
2023-02-03T20:13:47.981Z,11.00
2023-02-03T20:16:33.342Z,12.20
2023-02-03T20:19:04.140Z,15.40
2023-02-03T20:21:44.092Z,14.70
2023-02-03T20:25:05.732Z,20.90
2023-02-03T20:27:39.189Z,13.00
2023-02-03T20:30:21.386Z,23.40
2023-02-03T20:32:52.293Z,7.00
2023-02-03T20:35:47.986Z,11.90
2023-02-03T20:38:28.659Z,11.60
2023-02-03T20:41:41.985Z,17.30
2023-02-03T20:44:20.062Z,13.30
2023-02-03T20:46:48.793Z,12.20
2023-02-03T20:49:32.675Z,82.40
2023-02-03T20:52:03.972Z,55.80
2023-02-03T20:54:37.607Z,21.00
2023-02-03T20:57:40.258Z,12.10
2023-02-03T21:01:05.973Z,12.00
2023-02-03T21:03:58.377Z,13.40
2023-02-03T21:06:59.150Z,12.60
2023-02-03T21:09:53.226Z,9.50
2023-02-03T21:13:22.150Z,12.30
2023-02-03T21:16:31.906Z,12.70
2023-02-03T21:19:03.561Z,15.60
2023-02-03T21:21:44.064Z,10.00
2023-02-03T21:24:45.643Z,6.70
2023-02-03T21:27:49.454Z,8.30
2023-02-03T21:30:39.781Z,10.40
2023-02-03T21:33:44.093Z,9.20
2023-02-03T21:36:23.347Z,6.70
2023-02-03T21:38:56.935Z,3.60
2023-02-03T21:41:33.295Z,5.20
2023-02-03T21:44:01.852Z,3.30
2023-02-03T21:46:55.255Z,5.00
2023-02-03T21:49:35.662Z,4.30
2023-02-03T21:52:03.954Z,5.10
2023-02-03T21:54:33.852Z,5.30
2023-02-03T21:57:02.566Z,3.90
2023-02-03T21:59:46.929Z,9.40
2023-02-03T22:02:39.228Z,4.50
2023-02-03T22:05:30.989Z,5.90
2023-02-03T22:07:59.321Z,3.80
2023-02-03T22:10:30.311Z,4.80
2023-02-03T22:12:59.056Z,3.20
2023-02-03T22:15:27.162Z,3.80
2023-02-03T22:18:13.694Z,5.10
2023-02-03T22:20:44.899Z,2.90
2023-02-03T22:23:39.015Z,2.70
2023-02-03T22:26:33.214Z,3.40
2023-02-03T22:29:14.839Z,2.90
2023-02-03T22:31:48.050Z,11.80
2023-02-03T22:34:17.393Z,3.60
2023-02-03T22:36:45.392Z,6.40
2023-02-03T22:39:16.406Z,6.80
2023-02-03T22:41:44.578Z,7.20
2023-02-03T22:44:20.968Z,8.60
2023-02-03T22:46:56.729Z,6.90
2023-02-03T22:49:27.865Z,9.10
2023-02-03T22:53:01.778Z,7.90
2023-02-03T22:56:00.836Z,4.70
2023-02-03T22:58:31.837Z,11.40
2023-02-03T23:01:00.393Z,9.50
2023-02-03T23:03:33.139Z,6.80
2023-02-03T23:06:03.850Z,6.40
2023-02-03T23:08:52.880Z,10.00
2023-02-03T23:11:34.125Z,10.20
2023-02-03T23:14:05.751Z,5.60
2023-02-03T23:16:37.527Z,14.90
2023-02-03T23:19:05.761Z,5.80
2023-02-03T23:21:36.195Z,6.80
2023-02-03T23:24:13.433Z,44.80
2023-02-03T23:26:41.736Z,53.90
2023-02-03T23:29:21.592Z,10.70
2023-02-03T23:32:08.768Z,10.90
2023-02-03T23:35:20.387Z,7.90
2023-02-03T23:38:15.643Z,4.80
2023-02-03T23:41:29.623Z,7.50
2023-02-03T23:44:58.562Z,6.40
2023-02-03T23:48:21.345Z,9.90
2023-02-03T23:51:09.440Z,10.40
2023-02-03T23:54:18.161Z,9.80
2023-02-03T23:56:58.993Z,9.00
